メインページ
METAR-TAF:

METAR-TAF

空港 :

台北, 台湾

台湾桃園国際空港

緯度: 25-05N, 経度: 121-13E, 海抜: 33m

現時点の気象観測

当レポートは34分前の16:00(UTC)に作成
南西の風 5kt、から西/南西の間で変化する
気温 28°C
湿度 84%
気圧 1009 hPa
視程10km以上
高度2000ftの雲はほとんどない

METAR: RCTP 221600Z 22005KT 190V250 9999 FEW020 28/25 Q1009 NOSIG RMK A2981

時間: 00:34 (16:34 UTC)

予報

当レポートは5時間34分前の11:00(UTC)に作成
予報は22日の 12時(UTC)から 23日の 18時(UTC)まで有効
南西の風 10kt
視程10km以上
高度1500ftの雲はほとんどない
22日の 18時(UTC)から 22日の 24時(UTC)まで一時的に
南/南西の風 5kt
23日の 01時(UTC)から 23日の 03時(UTC)まで徐々に
西/南西の風 15kt
23日の 10時(UTC)から 23日の 12時(UTC)まで徐々に
南西の風 10kt

TAF: RCTP 221100Z 2212/2318 22010KT 9999 FEW015 TEMPO 2218/2224 20005KT BECMG 2301/2303 25015KT BECMG 2310/2312 23010KT

4,000以上の空港の気象観測と天気予報(METAR報とTAF報)

利用可能な観測所は地図上に黄色い丸と赤い丸で示す。

丸の上にカーソルを重ねると観測所名を参照できる。

次にクリックすると気象観測と天気予報を参照できる。

マップの切り替え:黒色「×」印の緑ボタンをクリックして拡大、「-」印の緑ボタンをクリックして縮小、緑色の三角印をクリックして隣りの地図に切り替え


METAR-TAF: